Terminal Aerodrome Forecast
Issued by NWS

Home | Current Version | Previous Version | Text Only | Print | Product List | Glossary On
Versions: 1 2 3 4 5 6 7 8 9 10 11 12 13 14 15 16 17 18 19
927
FTUS41 KBGM 312344
TAFELM
TAF
KELM 312344Z 0100/0124 35005KT P6SM SCT250
     FM010600 00000KT 1SM BR SCT035
     FM011200 00000KT P6SM SCT140=

USA.gov is the U.S. government's official web portal to all federal, state and local government web resources and services.